Time;durP1;ratioP1;P1;durP2;ratioP2;P2;SDS_P1;SDS_P2;PMS_P1;PMS_P2;Temp;Humidity;BMP_temperature;BMP_pressure;BME280_temperature;BME280_humidity;BME280_pressure;Samples;Min_cycle;Max_cycle;Signal;HPM_P1;HPM_P2
2024/02/12 00:00:18;;;;;;;1.93;1.83;;;7.90;99.90;;;;;;4924031;29;20197;-88
2024/02/12 00:02:44;;;;;;;1.88;1.60;;;8.10;99.90;;;;;;4922651;29;20249;-88
2024/02/12 00:05:10;;;;;;;1.63;1.15;;;8.50;99.90;;;;;;4923378;29;20209;-88
2024/02/12 00:07:36;;;;;;;1.33;1.00;;;8.40;99.90;;;;;;4920850;29;20788;-88
2024/02/12 00:10:05;;;;;;;3.25;2.00;;;8.50;99.90;;;;;;4929239;29;20789;-88
2024/02/12 00:12:36;;;;;;;2.15;1.20;;;8.40;99.90;;;;;;4920481;29;20189;-88
2024/02/12 00:15:02;;;;;;;1.10;0.98;;;7.80;99.90;;;;;;4915064;29;20202;-88
2024/02/12 00:17:30;;;;;;;1.20;0.90;;;7.00;99.90;;;;;;4936709;29;20214;-86
2024/02/12 00:19:57;;;;;;;1.50;0.80;;;8.60;99.90;;;;;;4937513;29;20185;-86
2024/02/12 00:22:25;;;;;;;1.92;1.25;;;8.50;99.90;;;;;;4943047;29;20177;-87
2024/02/12 00:24:51;;;;;;;1.05;0.80;;;8.20;99.90;;;;;;4924253;29;20242;-86
2024/02/12 00:27:17;;;;;;;1.05;0.90;;;8.20;99.90;;;;;;4936467;29;20193;-87
2024/02/12 00:29:43;;;;;;;0.80;0.80;;;8.30;99.90;;;;;;4934956;29;20181;-87
2024/02/12 00:32:10;;;;;;;1.00;0.90;;;8.80;99.90;;;;;;4941581;29;20953;-88
2024/02/12 00:34:36;;;;;;;1.15;1.02;;;8.60;99.90;;;;;;4938278;29;20667;-88
2024/02/12 00:37:02;;;;;;;0.97;0.87;;;9.00;99.90;;;;;;4935912;29;20269;-88
2024/02/12 00:39:29;;;;;;;2.13;1.10;;;8.60;99.90;;;;;;4918214;29;22346;-88
2024/02/12 00:41:54;;;;;;;1.10;0.80;;;8.40;99.90;;;;;;4940383;29;20196;-88
2024/02/12 00:44:20;;;;;;;1.00;0.73;;;8.70;99.90;;;;;;4933251;29;20189;-88
2024/02/12 00:46:54;;;;;;;1.30;0.87;;;9.00;99.90;;;;;;4941249;28;20600;-89
2024/02/12 00:49:20;;;;;;;1.90;0.93;;;8.60;99.90;;;;;;4938682;29;20405;-88
2024/02/12 00:51:45;;;;;;;0.90;0.70;;;8.80;99.90;;;;;;4925992;29;20184;-88
2024/02/12 00:54:14;;;;;;;1.17;0.80;;;8.70;99.90;;;;;;4913838;29;20182;-88
2024/02/12 00:56:47;;;;;;;1.23;0.85;;;8.70;99.90;;;;;;4911975;29;20594;-88
2024/02/12 00:59:16;;;;;;;1.65;0.95;;;8.50;99.90;;;;;;4933355;29;20210;-88
2024/02/12 01:01:44;;;;;;;1.25;0.90;;;8.50;99.90;;;;;;4927360;29;20178;-88
2024/02/12 01:04:10;;;;;;;1.15;0.90;;;8.60;99.90;;;;;;4939758;29;20182;-88
2024/02/12 01:06:36;;;;;;;1.73;0.90;;;8.60;99.90;;;;;;4938657;29;20201;-88
2024/02/12 01:09:05;;;;;;;1.50;1.00;;;9.20;99.90;;;;;;4926981;29;20192;-88
2024/02/12 01:11:31;;;;;;;1.70;0.90;;;9.70;99.90;;;;;;4917404;29;20268;-88
2024/02/12 01:13:57;;;;;;;0.70;0.70;;;8.40;99.90;;;;;;4931098;29;20634;-88
2024/02/12 01:16:24;;;;;;;1.42;1.02;;;8.40;99.90;;;;;;4948338;29;20227;-88
2024/02/12 01:18:53;;;;;;;1.10;1.00;;;8.90;99.90;;;;;;4946647;29;20206;-88
2024/02/12 01:21:19;;;;;;;0.80;0.80;;;8.20;99.90;;;;;;4953212;29;20245;-87
2024/02/12 01:23:45;;;;;;;1.15;1.05;;;8.50;99.90;;;;;;4931461;29;20202;-88
2024/02/12 01:26:14;;;;;;;1.03;0.90;;;8.30;99.90;;;;;;4937364;29;20314;-86
2024/02/12 01:28:43;;;;;;;2.10;1.00;;;8.30;99.90;;;;;;4931266;29;20197;-88
2024/02/12 01:31:18;;;;;;;1.83;1.20;;;8.50;99.90;;;;;;4928049;29;20196;-88
2024/02/12 01:33:47;;;;;;;1.42;1.33;;;8.20;99.90;;;;;;4949384;29;20185;-86
2024/02/12 01:36:13;;;;;;;1.73;1.45;;;8.20;99.90;;;;;;4943951;28;20194;-88
2024/02/12 01:38:39;;;;;;;3.63;1.50;;;8.40;99.90;;;;;;4952288;28;20289;-88
2024/02/12 01:41:05;;;;;;;2.28;1.45;;;8.10;99.90;;;;;;4919694;29;20185;-86
2024/02/12 01:43:31;;;;;;;1.77;1.60;;;8.30;99.90;;;;;;4940445;29;20643;-88
2024/02/12 01:46:01;;;;;;;1.50;1.27;;;8.00;99.90;;;;;;4908794;29;20217;-86
2024/02/12 01:48:30;;;;;;;2.88;2.05;;;8.10;99.90;;;;;;4943382;29;20295;-86
2024/02/12 01:50:59;;;;;;;1.63;1.20;;;8.30;99.90;;;;;;4925414;29;20186;-86
2024/02/12 01:53:24;;;;;;;2.10;1.35;;;8.30;99.90;;;;;;4929575;29;20180;-86
2024/02/12 01:55:50;;;;;;;2.30;1.40;;;8.00;99.90;;;;;;4942866;28;20224;-87
2024/02/12 01:58:17;;;;;;;2.60;1.53;;;7.80;99.90;;;;;;4930146;29;20217;-87
2024/02/12 02:00:46;;;;;;;1.85;1.30;;;8.00;99.90;;;;;;4941390;29;20419;-87
2024/02/12 02:03:15;;;;;;;2.20;1.40;;;8.10;99.90;;;;;;4936986;29;20181;-88
2024/02/12 02:05:40;;;;;;;1.50;1.20;;;8.30;99.90;;;;;;4923984;29;20209;-88
2024/02/12 02:08:06;;;;;;;1.40;1.17;;;8.50;99.90;;;;;;4936648;29;20268;-88
2024/02/12 02:10:31;;;;;;;2.23;1.03;;;8.40;99.90;;;;;;4942427;29;20264;-88
2024/02/12 02:12:59;;;;;;;1.00;0.90;;;8.10;99.90;;;;;;4942174;29;20624;-87
2024/02/12 02:15:25;;;;;;;0.82;0.82;;;8.10;99.90;;;;;;4925971;29;20211;-88
2024/02/12 02:17:51;;;;;;;1.45;0.70;;;8.40;99.90;;;;;;4939871;29;20725;-88
2024/02/12 02:20:20;;;;;;;2.00;0.90;;;8.30;99.90;;;;;;4948610;29;20181;-88
2024/02/12 02:22:46;;;;;;;2.20;0.90;;;8.50;99.90;;;;;;4953112;29;20577;-88
2024/02/12 02:25:12;;;;;;;1.17;0.80;;;8.20;99.90;;;;;;4938017;29;20213;-87
2024/02/12 02:27:37;;;;;;;0.90;0.80;;;8.90;99.90;;;;;;4944020;29;20706;-88
2024/02/12 02:30:07;;;;;;;1.07;0.97;;;8.50;99.90;;;;;;4941531;29;20194;-88
2024/02/12 02:32:34;;;;;;;0.82;0.80;;;8.50;99.90;;;;;;4940254;29;20188;-88
2024/02/12 02:34:59;;;;;;;1.63;1.00;;;8.40;99.90;;;;;;4930112;29;20295;-88
2024/02/12 02:37:25;;;;;;;0.80;0.60;;;8.60;99.90;;;;;;4927468;29;20296;-88
2024/02/12 02:39:50;;;;;;;0.90;0.80;;;8.40;99.90;;;;;;4944832;29;20196;-88
2024/02/12 02:42:16;;;;;;;1.30;0.70;;;8.50;99.90;;;;;;4937791;29;20181;-88
2024/02/12 02:44:42;;;;;;;0.70;0.70;;;8.70;99.90;;;;;;4943388;29;20185;-87
2024/02/12 02:47:10;;;;;;;0.90;0.80;;;9.00;99.90;;;;;;4926694;29;20193;-87
2024/02/12 02:49:36;;;;;;;1.05;0.93;;;8.90;99.90;;;;;;4928164;29;20180;-86
2024/02/12 02:52:02;;;;;;;1.87;0.93;;;9.00;99.90;;;;;;4943920;29;20185;-88
2024/02/12 02:54:28;;;;;;;0.90;0.73;;;8.80;99.90;;;;;;4946501;29;20766;-88
2024/02/12 02:56:53;;;;;;;1.07;0.77;;;9.00;99.90;;;;;;4920365;29;20184;-88
2024/02/12 02:59:20;;;;;;;2.00;0.73;;;8.80;99.90;;;;;;4931744;29;20657;-88
2024/02/12 03:01:46;;;;;;;1.02;0.70;;;8.80;99.90;;;;;;4935984;29;20181;-88
2024/02/12 03:04:13;;;;;;;0.80;0.73;;;9.10;99.90;;;;;;4935536;29;20193;-88
2024/02/12 03:06:40;;;;;;;1.35;0.80;;;8.70;99.90;;;;;;4951481;29;20205;-87
2024/02/12 03:09:07;;;;;;;0.80;0.75;;;8.50;99.90;;;;;;4945621;29;20271;-88
2024/02/12 03:11:32;;;;;;;0.65;0.55;;;9.20;99.90;;;;;;4950151;29;20208;-88
2024/02/12 03:13:58;;;;;;;0.80;0.80;;;8.70;99.90;;;;;;4943387;29;20213;-88
2024/02/12 03:16:24;;;;;;;0.90;0.90;;;9.20;99.90;;;;;;4939951;29;20206;-88
2024/02/12 03:18:49;;;;;;;1.00;0.90;;;9.40;99.90;;;;;;4923418;29;20240;-88
2024/02/12 03:21:20;;;;;;;1.07;0.97;;;8.90;99.90;;;;;;4943409;29;20726;-88
2024/02/12 03:23:48;;;;;;;1.25;1.00;;;8.60;99.90;;;;;;4928462;28;20473;-88
2024/02/12 03:26:15;;;;;;;0.70;0.70;;;9.00;99.90;;;;;;4927208;29;20237;-88
2024/02/12 03:28:41;;;;;;;0.90;0.85;;;9.00;99.90;;;;;;4932545;29;20182;-88
2024/02/12 03:31:08;;;;;;;1.45;1.00;;;9.30;99.90;;;;;;4957462;29;20186;-88
2024/02/12 03:33:33;;;;;;;0.70;0.60;;;8.80;99.90;;;;;;4935138;29;20178;-88
2024/02/12 03:36:00;;;;;;;0.87;0.70;;;9.30;99.90;;;;;;4926929;29;20251;-88
2024/02/12 03:38:26;;;;;;;0.70;0.60;;;9.60;99.90;;;;;;4938063;29;20527;-88
2024/02/12 03:40:53;;;;;;;1.53;0.70;;;9.10;99.90;;;;;;4938030;29;20222;-88
2024/02/12 03:43:22;;;;;;;1.58;0.57;;;9.00;99.90;;;;;;4924302;29;20240;-88
2024/02/12 03:45:48;;;;;;;1.00;0.70;;;9.00;99.90;;;;;;4958132;28;20197;-88
2024/02/12 04:01:58;;;;;;;0.80;0.60;;;9.20;99.90;;;;;;4943613;29;20263;-88
2024/02/12 04:04:23;;;;;;;0.90;0.60;;;8.90;99.90;;;;;;4931747;29;20177;-88
2024/02/12 04:06:49;;;;;;;1.90;0.70;;;9.00;99.90;;;;;;4934691;29;20212;-88
2024/02/12 04:09:14;;;;;;;0.70;0.60;;;9.00;99.90;;;;;;4935537;29;20272;-88
2024/02/12 04:11:40;;;;;;;1.20;0.60;;;8.60;99.90;;;;;;4936869;29;20190;-88
2024/02/12 04:14:07;;;;;;;0.70;0.70;;;8.90;99.90;;;;;;4920722;29;20651;-88
2024/02/12 04:16:32;;;;;;;0.80;0.70;;;8.80;99.90;;;;;;4937033;29;20206;-88
2024/02/12 04:19:04;;;;;;;0.60;0.60;;;8.20;99.90;;;;;;4925376;29;20206;-88
2024/02/12 04:21:33;;;;;;;1.50;0.70;;;9.10;99.90;;;;;;4941528;29;20204;-87
2024/02/12 04:24:03;;;;;;;0.75;0.68;;;8.90;99.90;;;;;;4919218;29;20210;-88
2024/02/12 04:26:29;;;;;;;1.00;0.80;;;8.70;99.90;;;;;;4918035;29;20233;-85
2024/02/12 04:28:54;;;;;;;1.02;0.60;;;9.10;99.90;;;;;;4916367;29;20197;-87
2024/02/12 04:31:20;;;;;;;0.70;0.60;;;8.90;99.90;;;;;;4934391;29;20374;-85
2024/02/12 04:33:46;;;;;;;1.27;0.90;;;8.60;99.90;;;;;;4934008;29;20185;-85
2024/02/12 04:36:15;;;;;;;1.35;0.60;;;9.80;99.90;;;;;;4942284;29;20205;-87
2024/02/12 04:38:41;;;;;;;0.60;0.60;;;8.70;99.90;;;;;;4941313;29;20789;-87
2024/02/12 04:41:06;;;;;;;0.70;0.60;;;8.70;99.90;;;;;;4921399;29;20213;-87
2024/02/12 04:43:35;;;;;;;0.80;0.80;;;8.80;99.90;;;;;;4932896;29;20604;-87
2024/02/12 04:46:00;;;;;;;1.33;0.70;;;9.00;99.90;;;;;;4921887;29;20635;-87
2024/02/12 04:48:27;;;;;;;0.77;0.60;;;8.70;99.90;;;;;;4929846;29;20213;-87
2024/02/12 04:50:53;;;;;;;1.25;0.80;;;8.90;99.90;;;;;;4954527;28;20189;-87
2024/02/12 04:53:18;;;;;;;1.03;0.70;;;8.90;99.90;;;;;;4937867;29;20664;-87
2024/02/12 04:55:44;;;;;;;1.30;0.63;;;8.70;99.90;;;;;;4938427;28;20446;-87
2024/02/12 04:58:09;;;;;;;1.20;0.70;;;9.00;99.90;;;;;;4934603;29;20221;-87
2024/02/12 05:00:35;;;;;;;1.97;0.70;;;8.70;99.90;;;;;;4927952;29;20460;-88
2024/02/12 05:03:00;;;;;;;1.53;0.83;;;9.20;99.90;;;;;;4920372;29;20641;-87
2024/02/12 05:05:27;;;;;;;0.70;0.70;;;8.90;99.90;;;;;;4937474;28;20214;-88
2024/02/12 05:07:53;;;;;;;1.00;0.90;;;8.70;99.90;;;;;;4921757;29;20697;-88
2024/02/12 05:10:20;;;;;;;2.40;0.87;;;9.00;99.90;;;;;;4920824;29;20198;-88
2024/02/12 05:12:47;;;;;;;2.25;0.88;;;8.70;99.90;;;;;;4926969;29;20448;-88
2024/02/12 05:15:12;;;;;;;2.60;0.90;;;8.50;99.90;;;;;;4934382;29;20590;-88
2024/02/12 05:18:06;;;;;;;0.97;0.90;;;8.50;99.90;;;;;;4936572;28;20221;-88
2024/02/12 05:23:17;;;;;;;1.38;1.27;;;8.20;99.90;;;;;;4933449;29;20730;-88
2024/02/12 05:25:44;;;;;;;1.57;1.40;;;8.50;99.90;;;;;;4903956;29;20222;-87
2024/02/12 05:28:10;;;;;;;1.95;1.33;;;8.30;99.90;;;;;;4925161;29;20457;-86
2024/02/12 05:30:35;;;;;;;4.00;1.73;;;8.60;99.90;;;;;;4924776;29;20779;-87
2024/02/12 05:33:01;;;;;;;2.00;1.27;;;8.20;99.90;;;;;;4936613;29;21123;-88
2024/02/12 05:35:27;;;;;;;2.53;1.70;;;8.20;99.90;;;;;;4922396;29;20306;-88
2024/02/12 05:37:53;;;;;;;2.53;1.20;;;8.30;99.90;;;;;;4934174;29;20288;-88
2024/02/12 05:40:20;;;;;;;2.37;1.50;;;8.30;99.90;;;;;;4916763;29;20184;-88
2024/02/12 05:42:46;;;;;;;1.80;1.20;;;8.60;99.90;;;;;;4933306;29;20178;-88
2024/02/12 05:45:12;;;;;;;1.87;1.50;;;8.40;99.90;;;;;;4919724;29;21588;-88
2024/02/12 05:47:40;;;;;;;2.45;2.17;;;8.10;99.90;;;;;;4936349;29;20415;-87
2024/02/12 05:50:07;;;;;;;2.10;1.70;;;8.30;99.90;;;;;;4920378;29;20182;-87
2024/02/12 05:52:33;;;;;;;1.95;1.55;;;8.30;99.90;;;;;;4933234;29;20190;-87
2024/02/12 05:54:59;;;;;;;2.00;1.60;;;8.30;99.90;;;;;;4937715;29;20302;-86
2024/02/12 05:57:25;;;;;;;1.80;1.70;;;8.40;99.90;;;;;;4936505;29;20314;-86
2024/02/12 05:59:50;;;;;;;3.07;2.57;;;8.00;99.90;;;;;;4919609;29;20189;-86
2024/02/12 06:02:16;;;;;;;2.90;1.80;;;9.00;99.90;;;;;;4933849;29;20967;-86
2024/02/12 06:04:42;;;;;;;3.78;1.88;;;8.40;99.90;;;;;;4938554;29;20186;-88
2024/02/12 06:07:08;;;;;;;4.25;2.08;;;8.30;99.90;;;;;;4938372;29;20198;-88
2024/02/12 06:09:36;;;;;;;5.53;1.90;;;8.40;99.90;;;;;;4936764;29;20261;-88
2024/02/12 06:12:02;;;;;;;2.40;2.20;;;8.30;99.90;;;;;;4929391;29;20204;-89
2024/02/12 06:14:27;;;;;;;1.87;1.50;;;8.60;99.90;;;;;;4927119;29;20639;-87
2024/02/12 06:16:54;;;;;;;1.93;1.83;;;8.50;99.90;;;;;;4931452;28;20189;-88
2024/02/12 06:19:20;;;;;;;2.53;1.95;;;9.10;99.90;;;;;;4930278;29;20570;-88
2024/02/12 06:21:45;;;;;;;2.57;1.70;;;8.50;99.90;;;;;;4930086;29;20276;-87
2024/02/12 06:24:11;;;;;;;2.57;1.87;;;8.60;99.90;;;;;;4940231;29;20194;-88
2024/02/12 06:26:38;;;;;;;2.47;1.80;;;8.60;99.90;;;;;;4951436;28;20214;-88
2024/02/12 06:29:04;;;;;;;2.50;1.98;;;8.60;99.90;;;;;;4942293;28;20614;-87
2024/02/12 06:31:30;;;;;;;7.77;2.17;;;8.30;99.90;;;;;;4933543;29;20186;-87
2024/02/12 06:33:56;;;;;;;3.20;2.30;;;8.70;99.90;;;;;;4916584;29;20534;-87
2024/02/12 06:36:21;;;;;;;1.50;1.40;;;8.90;99.90;;;;;;4917291;29;20205;-87
2024/02/12 06:38:47;;;;;;;3.00;1.80;;;8.80;99.90;;;;;;4935215;29;20220;-88
2024/02/12 06:41:12;;;;;;;2.13;1.93;;;8.80;99.90;;;;;;4925449;29;20185;-87
2024/02/12 06:43:40;;;;;;;1.60;1.50;;;8.50;99.90;;;;;;4938201;29;20190;-87
2024/02/12 06:46:05;;;;;;;2.17;1.88;;;9.00;99.90;;;;;;4944258;28;20310;-87
2024/02/12 06:48:31;;;;;;;1.70;1.60;;;8.70;99.90;;;;;;4940501;29;20221;-87
2024/02/12 06:51:00;;;;;;;5.33;2.13;;;9.00;99.90;;;;;;4922993;29;20416;-87
2024/02/12 06:53:25;;;;;;;2.95;1.90;;;8.50;99.90;;;;;;4936591;29;20197;-87
2024/02/12 06:55:51;;;;;;;4.13;3.40;;;8.60;99.90;;;;;;4921008;29;20202;-87
2024/02/12 06:58:16;;;;;;;3.40;3.10;;;9.20;99.90;;;;;;4920236;29;20225;-87
2024/02/12 07:00:42;;;;;;;4.27;2.60;;;8.60;99.90;;;;;;4933877;29;20178;-87
2024/02/12 07:03:07;;;;;;;2.17;1.90;;;8.70;99.90;;;;;;4933746;29;20205;-87
2024/02/12 07:05:33;;;;;;;3.60;2.63;;;8.60;99.90;;;;;;4921280;29;20725;-87
2024/02/12 07:07:59;;;;;;;3.40;2.67;;;8.60;99.90;;;;;;4937231;29;20269;-87
2024/02/12 07:10:24;;;;;;;3.30;2.93;;;8.50;99.90;;;;;;4925083;29;20257;-88
2024/02/12 07:12:50;;;;;;;3.53;2.63;;;8.50;99.90;;;;;;4952258;29;20229;-87
2024/02/12 07:15:16;;;;;;;11.25;3.50;;;8.30;99.90;;;;;;4939479;29;20206;-87
2024/02/12 07:17:43;;;;;;;5.43;4.37;;;8.40;99.90;;;;;;4924855;29;20211;-88
2024/02/12 07:20:09;;;;;;;3.47;2.80;;;8.40;99.90;;;;;;4924208;29;20439;-87
2024/02/12 07:22:36;;;;;;;2.90;2.17;;;8.30;99.90;;;;;;4934471;29;20177;-87
2024/02/12 07:25:03;;;;;;;3.15;2.42;;;8.90;99.90;;;;;;4918778;29;20826;-87
2024/02/12 07:27:29;;;;;;;3.88;3.08;;;8.40;99.90;;;;;;4920791;29;20271;-86
2024/02/12 07:29:55;;;;;;;2.40;2.20;;;8.70;99.90;;;;;;4929322;29;20651;-87
2024/02/12 07:32:21;;;;;;;5.97;3.20;;;9.10;99.90;;;;;;4920822;29;20221;-88
2024/02/12 07:34:49;;;;;;;4.93;2.13;;;8.90;99.90;;;;;;4945630;29;20948;-87
2024/02/12 07:37:17;;;;;;;3.67;2.15;;;8.50;99.90;;;;;;4947586;29;20446;-87
2024/02/12 07:39:43;;;;;;;2.40;1.98;;;8.60;99.90;;;;;;4921253;29;20213;-87
2024/02/12 07:42:09;;;;;;;2.90;1.83;;;8.80;99.90;;;;;;4922448;29;20186;-86
2024/02/12 07:44:34;;;;;;;1.85;1.70;;;9.00;99.90;;;;;;4920811;29;20185;-86
2024/02/12 07:47:02;;;;;;;2.63;1.87;;;8.80;99.90;;;;;;4934582;29;20784;-87
2024/02/12 07:49:28;;;;;;;2.90;2.20;;;9.40;99.90;;;;;;4938850;29;20193;-87
2024/02/12 07:51:54;;;;;;;4.23;2.80;;;9.40;99.90;;;;;;4921077;29;20185;-88
2024/02/12 07:54:20;;;;;;;1.60;1.50;;;9.00;99.90;;;;;;4935694;29;20427;-87
2024/02/12 07:56:47;;;;;;;2.23;2.03;;;9.30;99.90;;;;;;4937762;29;20225;-87
2024/02/12 07:59:12;;;;;;;3.17;1.55;;;9.20;99.90;;;;;;4938386;29;20224;-88
2024/02/12 08:01:38;;;;;;;2.07;1.40;;;9.20;99.90;;;;;;4939036;29;20477;-87
2024/02/12 08:04:04;;;;;;;2.30;1.20;;;9.20;99.90;;;;;;4939811;29;20217;-87
2024/02/12 08:06:30;;;;;;;1.33;1.23;;;9.10;99.90;;;;;;4938373;29;20203;-87
2024/02/12 08:08:56;;;;;;;1.40;0.90;;;9.40;99.90;;;;;;4929686;29;20420;-87
2024/02/12 08:11:22;;;;;;;2.00;1.50;;;9.40;99.90;;;;;;4954054;28;20402;-87
2024/02/12 08:13:48;;;;;;;1.50;1.40;;;8.70;99.90;;;;;;4930108;29;20245;-87
2024/02/12 08:16:14;;;;;;;1.50;1.40;;;9.20;99.90;;;;;;4954271;29;20998;-88
2024/02/12 08:18:41;;;;;;;1.20;1.10;;;9.50;99.90;;;;;;4922230;29;20557;-87
2024/02/12 08:21:06;;;;;;;1.65;1.10;;;9.70;99.90;;;;;;4939083;29;20186;-88
2024/02/12 08:23:32;;;;;;;1.27;1.00;;;9.20;99.90;;;;;;4919594;29;20182;-87
2024/02/12 08:25:57;;;;;;;5.83;1.97;;;9.20;99.90;;;;;;4934082;29;20217;-87
2024/02/12 08:28:24;;;;;;;1.60;1.17;;;9.70;99.90;;;;;;4933406;29;20203;-87
2024/02/12 08:30:53;;;;;;;1.50;1.40;;;9.50;99.90;;;;;;4903535;29;20277;-86
2024/02/12 08:33:20;;;;;;;1.52;1.30;;;9.40;99.90;;;;;;4935716;29;20197;-87
2024/02/12 08:35:48;;;;;;;1.45;1.35;;;;;;;;;;4922667;29;20548;-86
2024/02/12 08:38:14;;;;;;;1.55;1.20;;;;;;;;;;4918502;29;20269;-87
2024/02/12 08:40:40;;;;;;;2.70;2.50;;;9.50;99.90;;;;;;4940052;29;20191;-87
2024/02/12 08:43:05;;;;;;;1.63;1.47;;;9.40;99.90;;;;;;4935364;29;20211;-87
2024/02/12 08:45:31;;;;;;;1.40;1.10;;;9.70;99.90;;;;;;4919301;29;20209;-87
2024/02/12 08:47:57;;;;;;;1.10;1.00;;;9.70;99.90;;;;;;4923312;29;20195;-89
2024/02/12 08:50:23;;;;;;;1.50;1.40;;;10.00;99.90;;;;;;4916969;29;20206;-87
2024/02/12 08:52:54;;;;;;;1.77;1.05;;;9.50;99.90;;;;;;4924923;29;20195;-88
2024/02/12 08:55:20;;;;;;;1.55;0.98;;;9.60;99.90;;;;;;4918196;29;20213;-87
2024/02/12 08:57:46;;;;;;;1.20;1.10;;;9.80;99.90;;;;;;4953256;28;20253;-87
2024/02/12 09:00:13;;;;;;;2.80;1.20;;;9.60;99.90;;;;;;4934968;29;20571;-87
2024/02/12 09:02:40;;;;;;;1.83;1.30;;;9.80;99.90;;;;;;4912988;29;20241;-87
2024/02/12 09:05:10;;;;;;;2.63;1.40;;;9.90;99.90;;;;;;4916651;29;20319;-87
2024/02/12 09:07:40;;;;;;;2.05;1.80;;;9.80;99.90;;;;;;4935911;29;20205;-88
2024/02/12 09:10:07;;;;;;;2.20;1.98;;;9.80;99.90;;;;;;4916543;29;20236;-86
2024/02/12 09:12:51;;;;;;;1.63;1.52;;;9.80;99.90;;;;;;4937398;29;20656;-86
2024/02/12 09:15:16;;;;;;;2.58;1.58;;;10.90;99.90;;;;;;4918547;29;20214;-87
2024/02/12 09:17:44;;;;;;;2.83;1.50;;;10.00;99.90;;;;;;4933579;28;20254;-87
2024/02/12 09:20:13;;;;;;;3.28;1.45;;;10.00;99.90;;;;;;4953317;28;20218;-87
2024/02/12 09:22:39;;;;;;;1.40;1.20;;;10.10;99.90;;;;;;4936426;29;20186;-87
2024/02/12 09:25:12;;;;;;;2.93;1.33;;;10.60;99.90;;;;;;4937786;29;20246;-87
2024/02/12 09:27:38;;;;;;;1.58;0.93;;;10.20;99.90;;;;;;4931317;29;20191;-88
2024/02/12 09:30:11;;;;;;;1.30;1.20;;;10.60;99.90;;;;;;4932667;29;20195;-87
2024/02/12 09:32:38;;;;;;;2.53;1.45;;;10.60;99.90;;;;;;4916622;29;20595;-88
2024/02/12 09:35:04;;;;;;;1.73;1.40;;;10.20;99.90;;;;;;4920547;29;20210;-86
2024/02/12 09:37:32;;;;;;;1.40;1.30;;;10.80;99.90;;;;;;4924030;29;20194;-87
2024/02/12 09:39:59;;;;;;;1.30;1.20;;;10.60;99.90;;;;;;4931177;29;20530;-87
2024/02/12 09:42:28;;;;;;;1.40;1.30;;;10.90;99.90;;;;;;4917356;29;20187;-87
2024/02/12 09:45:00;;;;;;;3.22;1.55;;;10.60;99.90;;;;;;4935126;28;20620;-89
2024/02/12 09:47:27;;;;;;;3.13;1.50;;;10.70;99.90;;;;;;4938235;29;20187;-86
2024/02/12 09:49:54;;;;;;;2.47;2.20;;;11.40;99.90;;;;;;4919028;29;20196;-87
2024/02/12 09:52:21;;;;;;;1.70;1.60;;;10.80;99.90;;;;;;4932485;29;20203;-85
2024/02/12 09:54:47;;;;;;;2.15;1.13;;;11.10;99.90;;;;;;4934629;29;20200;-86
2024/02/12 09:57:14;;;;;;;2.63;2.22;;;11.10;99.90;;;;;;4936055;29;20290;-85
2024/02/12 09:59:45;;;;;;;2.42;2.22;;;11.50;99.90;;;;;;4943478;29;20344;-86
2024/02/12 10:02:11;;;;;;;3.85;2.30;;;11.60;99.90;;;;;;4937754;29;20181;-87
2024/02/12 10:04:38;;;;;;;1.77;1.67;;;11.50;99.90;;;;;;4932042;29;20196;-86
2024/02/12 10:07:05;;;;;;;4.55;2.03;;;11.90;99.90;;;;;;4926323;29;20626;-86
2024/02/12 10:09:32;;;;;;;4.22;2.15;;;11.80;99.90;;;;;;4924958;29;20295;-87
2024/02/12 10:12:06;;;;;;;5.20;3.03;;;11.80;99.90;;;;;;4945555;29;20193;-85
2024/02/12 10:14:33;;;;;;;1.95;1.85;;;11.80;99.90;;;;;;4921367;28;20200;-86
2024/02/12 10:17:02;;;;;;;2.75;1.90;;;11.80;99.90;;;;;;4939631;29;20197;-87
2024/02/12 10:19:28;;;;;;;1.65;1.40;;;12.30;99.90;;;;;;4924705;29;20220;-87
2024/02/12 10:21:54;;;;;;;4.20;1.53;;;11.60;99.90;;;;;;4941964;29;20193;-86
2024/02/12 10:27:04;;;;;;;2.30;2.10;;;11.90;99.90;;;;;;4969563;28;20692;-88
2024/02/12 10:29:31;;;;;;;6.03;2.10;;;11.60;99.90;;;;;;4951451;28;20203;-89
2024/02/12 10:31:58;;;;;;;2.28;1.65;;;11.70;99.90;;;;;;4957220;28;20617;-88
2024/02/12 10:34:29;;;;;;;1.80;1.70;;;11.70;99.90;;;;;;4949332;28;20207;-88
2024/02/12 10:36:56;;;;;;;1.50;1.33;;;11.70;99.80;;;;;;4951985;29;20193;-88
2024/02/12 10:39:22;;;;;;;2.65;1.67;;;11.60;99.90;;;;;;4937659;29;20247;-89
2024/02/12 10:41:50;;;;;;;1.93;1.60;;;12.40;99.90;;;;;;4931336;29;20188;-88
2024/02/12 10:44:19;;;;;;;3.17;1.80;;;11.60;99.30;;;;;;4931236;29;20188;-88
2024/02/12 10:46:49;;;;;;;1.90;1.60;;;11.70;99.50;;;;;;4940505;29;20220;-88
2024/02/12 10:49:15;;;;;;;1.95;1.75;;;11.70;99.60;;;;;;4944684;29;20196;-88
2024/02/12 10:51:42;;;;;;;4.18;1.70;;;11.60;99.00;;;;;;4934073;29;20633;-88
2024/02/12 10:54:08;;;;;;;2.60;1.33;;;11.90;99.60;;;;;;4944520;29;20185;-88
2024/02/12 10:56:34;;;;;;;1.80;1.60;;;12.20;99.90;;;;;;4938730;29;20257;-89
2024/02/12 10:59:00;;;;;;;1.90;1.80;;;11.80;99.90;;;;;;4945714;29;20690;-88
2024/02/12 11:01:28;;;;;;;4.00;1.90;;;11.70;99.90;;;;;;4932294;29;20218;-89
2024/02/12 11:03:59;;;;;;;2.10;1.92;;;11.80;99.40;;;;;;4939045;29;20229;-89
2024/02/12 11:06:26;;;;;;;3.85;1.58;;;12.10;99.30;;;;;;4930637;29;20769;-88
2024/02/12 11:08:54;;;;;;;1.58;1.10;;;12.40;98.90;;;;;;4933806;29;20264;-88
2024/02/12 11:11:22;;;;;;;4.13;1.38;;;12.00;99.00;;;;;;4931398;29;20318;-89
2024/02/12 11:14:00;;;;;;;2.00;1.30;;;12.40;98.70;;;;;;4934001;29;20810;-88
2024/02/12 11:16:30;;;;;;;1.40;1.30;;;12.30;97.90;;;;;;4944210;29;20211;-89
2024/02/12 11:18:58;;;;;;;5.00;1.95;;;12.10;98.10;;;;;;4936655;29;20244;-88
2024/02/12 11:21:35;;;;;;;4.00;3.28;;;12.30;98.50;;;;;;4934457;29;20208;-89
2024/02/12 11:24:06;;;;;;;3.00;2.58;;;11.60;98.30;;;;;;4933952;29;20550;-88
2024/02/12 11:26:40;;;;;;;2.35;1.83;;;12.00;98.30;;;;;;4930731;29;20239;-89
2024/02/12 11:29:06;;;;;;;2.00;1.67;;;12.30;97.90;;;;;;4931579;29;20199;-89
2024/02/12 11:31:39;;;;;;;3.83;1.85;;;12.00;98.20;;;;;;4932511;29;20197;-89
2024/02/12 11:34:12;;;;;;;3.63;1.55;;;12.10;98.00;;;;;;4929469;29;20196;-87
2024/02/12 11:36:40;;;;;;;1.73;1.35;;;12.00;98.00;;;;;;4923918;29;20233;-88
2024/02/12 11:39:09;;;;;;;1.40;1.30;;;11.90;97.20;;;;;;4924627;29;20223;-89
2024/02/12 11:41:36;;;;;;;3.80;1.45;;;11.80;97.30;;;;;;4917977;29;20178;-89
2024/02/12 11:44:05;;;;;;;1.85;1.52;;;11.90;97.60;;;;;;4918731;29;20194;-89
2024/02/12 11:46:32;;;;;;;1.75;1.20;;;12.00;97.80;;;;;;4921446;29;20203;-88
2024/02/12 11:49:07;;;;;;;2.10;1.17;;;11.50;98.60;;;;;;4924908;29;20196;-88
2024/02/12 11:51:38;;;;;;;1.77;1.63;;;10.90;97.80;;;;;;4923659;29;20187;-89
2024/02/12 11:54:05;;;;;;;1.98;1.40;;;11.20;98.60;;;;;;4910828;29;20661;-89
2024/02/12 11:56:32;;;;;;;2.88;1.67;;;11.40;98.80;;;;;;4929127;29;20213;-89
2024/02/12 11:58:58;;;;;;;2.53;1.73;;;11.60;99.10;;;;;;4946082;29;20209;-89
2024/02/12 12:01:31;;;;;;;5.60;2.88;;;11.30;99.20;;;;;;4931827;29;20219;-89
2024/02/12 12:03:57;;;;;;;4.93;2.75;;;11.30;99.40;;;;;;4928528;29;20193;-88
2024/02/12 12:06:31;;;;;;;4.07;2.78;;;11.40;99.40;;;;;;4925602;29;20608;-88
2024/02/12 12:08:57;;;;;;;1.98;1.70;;;11.60;99.10;;;;;;4928994;29;20192;-89
2024/02/12 12:11:23;;;;;;;2.00;1.90;;;11.30;98.90;;;;;;4952272;29;20648;-88
2024/02/12 12:13:59;;;;;;;3.50;1.50;;;11.60;99.70;;;;;;4933292;29;20201;-88
2024/02/12 12:16:27;;;;;;;1.80;1.70;;;11.70;99.30;;;;;;4932268;29;20214;-88
2024/02/12 12:18:53;;;;;;;3.20;1.98;;;11.50;99.00;;;;;;4951725;29;20246;-88
2024/02/12 12:21:20;;;;;;;2.92;2.10;;;12.60;99.90;;;;;;4933107;29;20542;-90
2024/02/12 12:23:47;;;;;;;3.47;1.70;;;11.60;99.20;;;;;;4932574;29;20217;-88
2024/02/12 12:26:13;;;;;;;1.80;1.40;;;11.80;98.70;;;;;;4938399;29;20282;-88
2024/02/12 12:28:39;;;;;;;1.50;1.40;;;11.40;98.60;;;;;;4901000;29;20196;-88
2024/02/12 12:31:07;;;;;;;2.37;2.17;;;12.00;99.60;;;;;;4950757;29;20217;-89
2024/02/12 12:33:32;;;;;;;1.75;1.38;;;12.20;99.10;;;;;;4949996;29;20189;-89
2024/02/12 12:35:58;;;;;;;1.77;1.57;;;11.90;98.50;;;;;;4929276;29;20258;-88
2024/02/12 12:38:24;;;;;;;2.30;1.47;;;11.40;99.70;;;;;;4930630;29;20282;-89
2024/02/12 12:40:49;;;;;;;2.73;1.37;;;12.10;99.90;;;;;;4935174;29;20616;-88
2024/02/12 12:43:16;;;;;;;1.90;1.80;;;11.90;99.90;;;;;;4933930;29;20195;-89
2024/02/12 12:45:42;;;;;;;3.88;1.45;;;12.20;99.90;;;;;;4932328;29;20203;-88
2024/02/12 12:48:12;;;;;;;1.95;1.58;;;12.30;99.90;;;;;;4926707;29;20233;-88
2024/02/12 12:50:41;;;;;;;2.25;1.50;;;11.90;99.90;;;;;;4934689;29;20198;-88
2024/02/12 12:53:08;;;;;;;3.15;1.73;;;11.60;99.90;;;;;;4930737;29;20609;-89
2024/02/12 12:55:35;;;;;;;3.25;1.90;;;11.30;99.90;;;;;;4927324;29;20639;-88
2024/02/12 12:58:01;;;;;;;2.35;1.50;;;11.70;99.90;;;;;;4913357;29;20213;-88
2024/02/12 13:00:31;;;;;;;1.70;1.60;;;12.30;99.90;;;;;;4928680;29;20185;-88
2024/02/12 13:02:56;;;;;;;2.85;2.13;;;12.60;99.90;;;;;;4931121;29;20719;-88
2024/02/12 13:05:23;;;;;;;2.43;1.37;;;12.00;99.90;;;;;;4948029;29;20244;-89
2024/02/12 13:07:49;;;;;;;2.05;1.52;;;12.10;99.90;;;;;;4937034;29;20201;-89
2024/02/12 13:10:15;;;;;;;2.80;1.60;;;12.70;99.90;;;;;;4928802;29;20204;-89
2024/02/12 13:12:43;;;;;;;2.20;2.00;;;12.10;99.90;;;;;;4927908;29;20558;-89